createdAt,value
2022-11-08T00:00:26.946Z,86.94
2022-11-08T00:01:26.987Z,86.94
2022-11-08T00:02:27.084Z,86.94
2022-11-08T00:03:26.897Z,86.83
2022-11-08T00:04:27.131Z,87.04
2022-11-08T00:05:26.871Z,87.14
2022-11-08T00:06:26.879Z,87.14
2022-11-08T00:07:26.844Z,87.14
2022-11-08T00:08:26.859Z,87.24
2022-11-08T00:09:26.873Z,87.35
2022-11-08T00:10:26.815Z,87.38
2022-11-08T00:11:26.796Z,87.35
2022-11-08T00:12:26.790Z,87.35
2022-11-08T00:13:26.782Z,87.38
2022-11-08T00:14:26.773Z,87.38
2022-11-08T00:15:26.753Z,87.38
2022-11-08T00:16:26.735Z,87.49
2022-11-08T00:17:26.729Z,87.59
2022-11-08T00:18:26.759Z,87.69
2022-11-08T00:19:26.690Z,87.69
2022-11-08T00:20:26.697Z,87.79
2022-11-08T00:21:26.689Z,87.79
2022-11-08T00:22:26.667Z,87.79
2022-11-08T00:23:26.663Z,87.90
2022-11-08T00:24:26.630Z,88.00
2022-11-08T00:25:26.613Z,88.20
2022-11-08T00:26:26.631Z,88.31
2022-11-08T00:27:26.601Z,88.40
2022-11-08T00:28:26.599Z,88.55
2022-11-08T00:29:26.565Z,88.51
2022-11-08T00:30:26.578Z,88.31
2022-11-08T00:31:27.542Z,88.20
2022-11-08T00:32:26.580Z,88.34
2022-11-08T00:33:26.519Z,88.31
2022-11-08T00:34:26.502Z,88.31
2022-11-08T00:35:26.500Z,88.20
2022-11-08T00:36:26.484Z,88.20
2022-11-08T00:37:26.462Z,88.31
2022-11-08T00:38:26.501Z,88.34
2022-11-08T00:39:26.440Z,88.31
2022-11-08T00:40:26.431Z,88.10
2022-11-08T00:41:26.414Z,87.79
2022-11-08T00:42:26.407Z,87.69
2022-11-08T00:43:26.404Z,87.49
2022-11-08T00:44:26.819Z,87.49
2022-11-08T00:45:26.371Z,87.29
2022-11-08T00:46:26.366Z,87.18
2022-11-08T00:47:26.358Z,87.18
2022-11-08T00:48:26.339Z,87.08
2022-11-08T00:49:26.331Z,86.94
2022-11-08T00:50:26.306Z,86.83
2022-11-08T00:51:26.315Z,86.63
2022-11-08T00:52:26.282Z,86.63
2022-11-08T00:53:26.266Z,86.53
2022-11-08T00:54:26.352Z,86.43
2022-11-08T00:55:26.248Z,86.43
2022-11-08T00:56:26.231Z,86.33
2022-11-08T00:57:41.265Z,86.13
2022-11-08T00:58:27.726Z,86.02
2022-11-08T00:59:26.195Z,86.02
2022-11-08T01:00:26.175Z,85.92
2022-11-08T01:01:26.420Z,85.82
2022-11-08T01:02:26.283Z,85.61
2022-11-08T01:03:26.146Z,85.51
2022-11-08T01:04:26.128Z,85.51
2022-11-08T01:05:26.110Z,85.17
2022-11-08T01:06:26.115Z,85.17
2022-11-08T01:07:26.105Z,85.06
2022-11-08T01:08:26.084Z,85.06
2022-11-08T01:09:26.067Z,84.76
2022-11-08T01:10:26.057Z,84.76
2022-11-08T01:11:26.032Z,84.56
2022-11-08T01:12:26.028Z,84.35
2022-11-08T01:13:26.084Z,84.25
2022-11-08T01:14:26.002Z,84.25
2022-11-08T01:15:26.022Z,84.25
2022-11-08T01:16:25.998Z,84.25
2022-11-08T01:17:25.960Z,84.25
2022-11-08T01:18:25.978Z,84.05
2022-11-08T01:19:25.956Z,83.91
2022-11-08T01:20:25.928Z,83.70
2022-11-08T01:21:25.915Z,83.60
2022-11-08T01:22:25.956Z,83.70
2022-11-08T01:23:25.944Z,83.74
2022-11-08T01:24:25.875Z,83.74
2022-11-08T01:25:25.876Z,83.70
2022-11-08T01:26:25.862Z,83.50
2022-11-08T01:27:25.835Z,83.44
2022-11-08T01:28:25.816Z,83.20
2022-11-08T01:29:25.824Z,83.09
2022-11-08T01:30:25.794Z,82.99
2022-11-08T01:31:25.796Z,82.99
2022-11-08T01:32:25.767Z,82.89
2022-11-08T01:33:25.962Z,82.89
2022-11-08T01:34:25.754Z,82.68
2022-11-08T01:35:25.937Z,82.59
2022-11-08T01:36:27.370Z,82.48
2022-11-08T01:37:25.732Z,82.28
2022-11-08T01:38:25.740Z,82.28
2022-11-08T01:39:25.688Z,82.18
2022-11-08T01:40:25.670Z,82.28
2022-11-08T01:41:25.680Z,82.28
2022-11-08T01:42:25.646Z,82.28
2022-11-08T01:43:26.263Z,82.28
2022-11-08T01:44:25.628Z,82.18
2022-11-08T01:45:25.625Z,82.28
2022-11-08T01:46:25.606Z,82.28
2022-11-08T01:47:25.577Z,82.18
2022-11-08T01:48:25.620Z,82.18
2022-11-08T01:49:25.569Z,82.07
2022-11-08T01:50:25.545Z,82.18
2022-11-08T01:51:25.550Z,82.18
2022-11-08T01:52:25.521Z,82.04
2022-11-08T01:53:25.525Z,81.93
2022-11-08T01:54:25.573Z,81.93
2022-11-08T01:55:25.491Z,81.98
2022-11-08T01:56:25.472Z,81.98
2022-11-08T01:57:25.465Z,81.87
2022-11-08T01:58:25.481Z,81.84
2022-11-08T01:59:25.451Z,81.98
2022-11-08T02:00:25.427Z,81.84
2022-11-08T02:01:25.580Z,81.73
2022-11-08T02:02:25.469Z,81.63
2022-11-08T02:03:25.427Z,81.53
2022-11-08T02:04:25.424Z,81.53
2022-11-08T02:05:25.374Z,81.43
2022-11-08T02:06:25.345Z,81.33
2022-11-08T02:07:25.341Z,81.43
2022-11-08T02:08:25.311Z,81.43
2022-11-08T02:09:25.352Z,81.23
2022-11-08T02:10:25.314Z,81.23
2022-11-08T02:11:25.306Z,81.23
2022-11-08T02:12:25.268Z,80.92
2022-11-08T02:13:25.275Z,80.82
2022-11-08T02:14:25.241Z,80.82
2022-11-08T02:15:25.253Z,80.82
2022-11-08T02:16:25.240Z,80.82
2022-11-08T02:17:25.212Z,80.82
2022-11-08T02:18:25.196Z,80.82
2022-11-08T02:19:25.189Z,80.82
2022-11-08T02:20:25.170Z,80.62
2022-11-08T02:21:25.157Z,80.41
2022-11-08T02:22:25.140Z,80.41
2022-11-08T02:23:25.625Z,80.31
2022-11-08T02:24:25.111Z,80.31
2022-11-08T02:25:25.126Z,80.27
2022-11-08T02:26:25.095Z,80.31
2022-11-08T02:27:25.185Z,80.31
2022-11-08T02:28:25.264Z,80.21
2022-11-08T02:29:25.046Z,80.00
2022-11-08T02:30:25.120Z,80.11
2022-11-08T02:31:25.046Z,80.11
2022-11-08T02:32:25.109Z,80.00
2022-11-08T02:33:25.057Z,79.80
2022-11-08T02:34:25.189Z,79.90
2022-11-08T02:35:24.982Z,79.90
2022-11-08T02:36:25.060Z,79.80
2022-11-08T02:37:24.998Z,79.90
2022-11-08T02:38:24.943Z,80.00
2022-11-08T02:39:25.781Z,80.00
2022-11-08T02:40:24.918Z,79.90
2022-11-08T02:41:24.919Z,79.90
2022-11-08T02:42:25.111Z,80.00
2022-11-08T02:43:24.961Z,80.00
2022-11-08T02:44:24.868Z,80.00
2022-11-08T02:45:24.876Z,80.00
2022-11-08T02:46:24.868Z,80.11
2022-11-08T02:47:24.843Z,80.11
2022-11-08T02:48:24.854Z,80.21
2022-11-08T02:49:24.830Z,80.00
2022-11-08T02:50:24.788Z,79.90
2022-11-08T02:51:24.792Z,79.74
2022-11-08T02:52:24.816Z,79.80
2022-11-08T02:53:24.747Z,79.84
2022-11-08T02:54:24.802Z,79.70
2022-11-08T02:55:24.766Z,80.00
2022-11-08T02:56:24.730Z,79.84
2022-11-08T02:57:24.716Z,79.63
2022-11-08T02:58:24.697Z,79.29
2022-11-08T02:59:24.670Z,79.23
2022-11-08T03:00:24.702Z,79.09
2022-11-08T03:01:24.818Z,78.82
2022-11-08T03:02:24.815Z,78.82
2022-11-08T03:03:24.650Z,78.92
2022-11-08T03:04:24.642Z,79.13
2022-11-08T03:05:24.633Z,79.33
2022-11-08T03:06:24.582Z,79.33
2022-11-08T03:07:25.117Z,79.53
2022-11-08T03:08:24.576Z,79.74
2022-11-08T03:09:24.568Z,79.74
2022-11-08T03:10:24.651Z,79.63
2022-11-08T03:11:24.517Z,79.84
2022-11-08T03:12:24.520Z,79.23
2022-11-08T03:13:24.509Z,79.02
2022-11-08T03:14:24.483Z,78.92
2022-11-08T03:15:24.577Z,79.02
2022-11-08T03:16:24.473Z,79.02
2022-11-08T03:17:24.476Z,78.92
2022-11-08T03:18:24.459Z,78.92
2022-11-08T03:19:24.467Z,79.02
2022-11-08T03:20:27.230Z,79.02
2022-11-08T03:21:24.419Z,79.13
2022-11-08T03:22:24.419Z,79.23
2022-11-08T03:23:24.382Z,79.33
2022-11-08T03:24:24.384Z,79.47
2022-11-08T03:25:24.470Z,79.68
2022-11-08T03:26:24.338Z,79.77
2022-11-08T03:27:24.338Z,80.29
2022-11-08T03:28:24.650Z,80.73
2022-11-08T03:29:24.331Z,80.93
2022-11-08T03:30:24.350Z,81.24
2022-11-08T03:31:24.281Z,81.24
2022-11-08T03:32:24.421Z,81.34
2022-11-08T03:33:24.265Z,81.13
2022-11-08T03:34:24.470Z,81.13
2022-11-08T03:35:24.218Z,81.24
2022-11-08T03:36:24.211Z,81.65
2022-11-08T03:37:24.282Z,81.74
2022-11-08T03:38:24.179Z,82.05
2022-11-08T03:39:24.185Z,82.50
2022-11-08T03:40:24.167Z,82.70
2022-11-08T03:41:24.154Z,82.80
2022-11-08T03:42:24.125Z,82.70
2022-11-08T03:43:24.177Z,82.76
2022-11-08T03:44:24.169Z,82.87
2022-11-08T03:45:24.099Z,82.90
2022-11-08T03:46:24.099Z,82.97
2022-11-08T03:47:24.080Z,83.31
2022-11-08T03:48:24.368Z,83.17
2022-11-08T03:49:24.050Z,83.21
2022-11-08T03:50:24.061Z,83.31
2022-11-08T03:51:24.031Z,83.51
2022-11-08T03:52:24.022Z,83.42
2022-11-08T03:53:23.996Z,83.51
2022-11-08T03:54:23.986Z,83.62
2022-11-08T03:55:24.000Z,83.51
2022-11-08T03:56:24.002Z,83.51
2022-11-08T03:57:23.983Z,83.51
2022-11-08T03:58:23.923Z,83.62
2022-11-08T03:59:23.966Z,83.82
2022-11-08T04:00:23.903Z,84.03
2022-11-08T04:01:24.129Z,84.12
2022-11-08T04:02:24.172Z,84.12
2022-11-08T04:03:23.871Z,84.23
2022-11-08T04:04:24.097Z,84.12
2022-11-08T04:05:23.949Z,84.27
2022-11-08T04:06:23.833Z,84.27
2022-11-08T04:07:23.865Z,84.47
2022-11-08T04:08:23.809Z,84.58
2022-11-08T04:09:23.793Z,84.67
2022-11-08T04:10:23.775Z,84.78
2022-11-08T04:11:23.772Z,84.78
2022-11-08T04:12:23.749Z,84.88
2022-11-08T04:13:23.820Z,84.98
2022-11-08T04:14:23.737Z,85.08
2022-11-08T04:15:23.709Z,85.19
2022-11-08T04:16:23.772Z,85.28
2022-11-08T04:17:23.705Z,85.53
2022-11-08T04:18:23.670Z,85.63
2022-11-08T04:19:23.711Z,85.63
2022-11-08T04:20:23.910Z,85.84
2022-11-08T04:21:23.632Z,85.74
2022-11-08T04:22:23.654Z,85.84
2022-11-08T04:23:23.611Z,85.74
2022-11-08T04:24:23.721Z,85.94
2022-11-08T04:25:23.611Z,85.84
2022-11-08T04:26:25.324Z,85.84
2022-11-08T04:27:23.795Z,85.94
2022-11-08T04:28:22.552Z,85.84
2022-11-08T04:29:23.573Z,85.74
2022-11-08T04:30:23.567Z,85.74
2022-11-08T04:31:23.542Z,85.84
2022-11-08T04:32:23.505Z,85.94
2022-11-08T04:33:23.478Z,85.94
2022-11-08T04:34:23.698Z,85.94
2022-11-08T04:35:23.467Z,85.94
2022-11-08T04:36:23.465Z,85.94
2022-11-08T04:37:23.436Z,85.94
2022-11-08T04:38:23.525Z,85.94
2022-11-08T04:39:23.431Z,86.04
2022-11-08T04:40:23.387Z,85.94
2022-11-08T04:41:23.398Z,85.63
2022-11-08T04:42:23.365Z,85.63
2022-11-08T04:43:23.367Z,85.84
2022-11-08T04:44:23.335Z,85.94
2022-11-08T04:45:23.502Z,86.04
2022-11-08T04:46:23.361Z,86.29
2022-11-08T04:47:23.320Z,86.29
2022-11-08T04:48:23.334Z,86.18
2022-11-08T04:49:23.514Z,86.15
2022-11-08T04:50:23.278Z,86.18
2022-11-08T04:51:23.255Z,86.15
2022-11-08T04:52:23.251Z,86.04
2022-11-08T04:53:23.234Z,86.04
2022-11-08T04:54:23.217Z,85.94
2022-11-08T04:55:23.226Z,85.98
2022-11-08T04:56:23.191Z,85.94
2022-11-08T04:57:23.195Z,86.08
2022-11-08T04:58:23.166Z,86.08
2022-11-08T04:59:23.153Z,86.08
2022-11-08T05:00:23.137Z,86.18
2022-11-08T05:01:23.331Z,86.29
2022-11-08T05:02:23.296Z,86.29
2022-11-08T05:03:23.098Z,86.29
2022-11-08T05:04:23.105Z,86.29
2022-11-08T05:05:23.070Z,86.49
2022-11-08T05:06:23.054Z,86.49
2022-11-08T05:07:23.100Z,86.59
2022-11-08T05:08:23.063Z,86.59
2022-11-08T05:09:23.059Z,86.59
2022-11-08T05:10:23.254Z,86.59
2022-11-08T05:11:22.993Z,86.39
2022-11-08T05:12:22.985Z,86.39
2022-11-08T05:13:22.992Z,86.39
2022-11-08T05:14:23.581Z,86.49
2022-11-08T05:15:22.946Z,86.49
2022-11-08T05:16:22.932Z,86.49
2022-11-08T05:17:22.931Z,86.59
2022-11-08T05:18:22.917Z,86.39
2022-11-08T05:19:22.943Z,86.29
2022-11-08T05:20:22.896Z,86.29
2022-11-08T05:21:22.863Z,86.59
2022-11-08T05:22:22.852Z,86.59
2022-11-08T05:23:22.901Z,86.69
2022-11-08T05:24:22.835Z,86.83
2022-11-08T05:25:22.855Z,87.04
2022-11-08T05:26:22.797Z,87.14
2022-11-08T05:27:22.868Z,87.24
2022-11-08T05:28:22.785Z,87.35
2022-11-08T05:29:22.783Z,87.24
2022-11-08T05:30:22.756Z,87.24
2022-11-08T05:31:22.750Z,87.04
2022-11-08T05:32:22.730Z,87.04
2022-11-08T05:33:22.732Z,87.24
2022-11-08T05:34:22.706Z,87.14
2022-11-08T05:35:22.691Z,87.14
2022-11-08T05:36:22.700Z,87.14
2022-11-08T05:37:22.740Z,87.24
2022-11-08T05:38:22.651Z,86.83
2022-11-08T05:39:22.640Z,86.94
2022-11-08T05:40:22.926Z,86.83
2022-11-08T05:41:22.611Z,86.83
2022-11-08T05:42:22.635Z,86.94
2022-11-08T05:43:22.593Z,86.73
2022-11-08T05:44:22.575Z,86.63
2022-11-08T05:45:22.586Z,86.43
2022-11-08T05:46:22.548Z,86.33
2022-11-08T05:47:22.581Z,86.33
2022-11-08T05:48:22.522Z,86.02
2022-11-08T05:49:22.524Z,86.12
2022-11-08T05:50:22.494Z,85.92
2022-11-08T05:51:22.526Z,85.71
2022-11-08T05:52:22.485Z,85.51
2022-11-08T05:53:22.469Z,85.30
2022-11-08T05:54:22.524Z,85.41
2022-11-08T05:55:22.413Z,85.30
2022-11-08T05:56:22.398Z,85.10
2022-11-08T05:57:22.437Z,85.00
2022-11-08T05:58:22.410Z,84.80
2022-11-08T05:59:22.351Z,84.80
2022-11-08T06:00:22.415Z,84.59
2022-11-08T06:01:22.335Z,84.34
2022-11-08T06:02:22.463Z,84.14
2022-11-08T06:03:23.717Z,83.84
2022-11-08T06:04:22.270Z,83.43
2022-11-08T06:05:22.259Z,83.43
2022-11-08T06:06:22.253Z,83.53
2022-11-08T06:07:22.288Z,83.43
2022-11-08T06:08:22.230Z,83.23
2022-11-08T06:09:22.247Z,83.02
2022-11-08T06:10:22.193Z,83.02
2022-11-08T06:11:22.193Z,83.02
2022-11-08T06:12:22.171Z,82.82
2022-11-08T06:13:22.219Z,82.82
2022-11-08T06:14:22.158Z,82.71
2022-11-08T06:15:22.129Z,82.82
2022-11-08T06:16:22.159Z,82.61
2022-11-08T06:17:26.311Z,82.71
2022-11-08T06:18:22.105Z,82.51
2022-11-08T06:19:22.112Z,82.41
2022-11-08T06:20:22.076Z,82.10
2022-11-08T06:21:22.072Z,81.90
2022-11-08T06:22:22.102Z,81.80
2022-11-08T06:23:22.033Z,81.70
2022-11-08T06:24:22.019Z,81.70
2022-11-08T06:25:22.042Z,81.56
2022-11-08T06:26:22.010Z,81.39
2022-11-08T06:27:21.979Z,81.04
2022-11-08T06:28:21.964Z,80.84
2022-11-08T06:29:21.980Z,80.54
2022-11-08T06:30:21.959Z,80.54
2022-11-08T06:31:21.943Z,80.33
2022-11-08T06:32:23.020Z,79.93
2022-11-08T06:33:21.246Z,79.82
2022-11-08T06:34:21.965Z,79.32
2022-11-08T06:35:21.878Z,79.21
2022-11-08T06:36:21.906Z,79.11
2022-11-08T06:37:21.880Z,79.11
2022-11-08T06:38:21.890Z,78.80
2022-11-08T06:39:26.072Z,78.46
2022-11-08T06:40:21.817Z,78.36
2022-11-08T06:41:21.804Z,78.26
2022-11-08T06:42:21.811Z,77.95
2022-11-08T06:43:22.330Z,77.55
2022-11-08T06:44:21.792Z,76.93
2022-11-08T06:45:21.765Z,76.49
2022-11-08T06:46:21.754Z,76.08
2022-11-08T06:47:21.731Z,75.67
2022-11-08T06:48:21.737Z,75.02
2022-11-08T06:49:21.714Z,74.96
2022-11-08T06:50:21.685Z,74.72
2022-11-08T06:51:21.714Z,74.21
2022-11-08T06:52:21.659Z,73.80
2022-11-08T06:53:21.946Z,73.71
2022-11-08T06:54:25.790Z,73.16
2022-11-08T06:55:21.669Z,72.65
2022-11-08T06:56:21.617Z,72.34
2022-11-08T06:57:21.603Z,72.34
2022-11-08T06:58:21.630Z,71.80
2022-11-08T06:59:21.599Z,72.01
2022-11-08T07:00:21.559Z,71.60
2022-11-08T07:01:21.670Z,70.65
2022-11-08T07:02:21.699Z,70.79
2022-11-08T07:03:21.825Z,70.68
2022-11-08T07:04:21.508Z,70.45
2022-11-08T07:05:21.495Z,70.35
2022-11-08T07:06:21.497Z,70.14
2022-11-08T07:07:21.520Z,69.94
2022-11-08T07:08:24.025Z,70.04
2022-11-08T07:09:21.451Z,70.04
2022-11-08T07:10:21.461Z,69.94
2022-11-08T07:11:21.427Z,69.64
2022-11-08T07:12:21.416Z,69.64
2022-11-08T07:13:21.751Z,69.33
2022-11-08T07:14:21.383Z,69.02
2022-11-08T07:15:21.412Z,68.69
2022-11-08T07:16:21.380Z,68.38
2022-11-08T07:17:21.359Z,68.28
2022-11-08T07:18:21.388Z,68.18
2022-11-08T07:19:21.365Z,68.08
2022-11-08T07:20:21.305Z,67.84
2022-11-08T07:21:21.319Z,67.54
2022-11-08T07:22:21.319Z,67.44
2022-11-08T07:23:21.693Z,67.13
2022-11-08T07:24:21.253Z,67.24
2022-11-08T07:25:21.267Z,67.33
2022-11-08T07:26:21.286Z,67.74
2022-11-08T07:27:21.225Z,67.77
2022-11-08T07:28:21.221Z,67.57
2022-11-08T07:29:21.190Z,67.54
2022-11-08T07:30:21.227Z,67.44
2022-11-08T07:31:21.210Z,67.54
2022-11-08T07:32:21.220Z,67.54
2022-11-08T07:33:21.739Z,67.24
2022-11-08T07:34:21.139Z,67.00
2022-11-08T07:35:21.122Z,66.83
2022-11-08T07:36:21.133Z,66.69
2022-11-08T07:37:21.133Z,66.80
2022-11-08T07:38:21.081Z,66.83
2022-11-08T07:39:21.086Z,66.69
2022-11-08T07:40:21.060Z,66.49
2022-11-08T07:41:21.055Z,66.49
2022-11-08T07:42:21.047Z,66.49
2022-11-08T07:43:21.104Z,66.19
2022-11-08T07:44:21.013Z,66.39
2022-11-08T07:45:21.013Z,66.39
2022-11-08T07:46:20.987Z,66.49
2022-11-08T07:47:20.976Z,66.39
2022-11-08T07:48:20.958Z,66.39
2022-11-08T07:49:20.990Z,66.60
2022-11-08T07:50:20.956Z,66.49
2022-11-08T07:51:20.933Z,66.60
2022-11-08T07:52:20.927Z,66.60
2022-11-08T07:53:21.104Z,66.69
2022-11-08T07:54:20.876Z,66.49
2022-11-08T07:55:20.904Z,66.39
2022-11-08T07:56:20.968Z,66.29
2022-11-08T07:57:20.839Z,66.39
2022-11-08T07:58:20.915Z,66.49
2022-11-08T07:59:20.821Z,66.60
2022-11-08T08:00:20.822Z,66.60
2022-11-08T08:01:20.894Z,66.69
2022-11-08T08:02:20.908Z,66.60
2022-11-08T08:03:21.342Z,66.39
2022-11-08T08:04:20.761Z,66.60
2022-11-08T08:05:20.746Z,66.19
2022-11-08T08:06:20.749Z,66.19
2022-11-08T08:07:20.755Z,65.95
2022-11-08T08:08:20.714Z,66.19
2022-11-08T08:09:20.695Z,66.08
2022-11-08T08:10:20.706Z,65.95
2022-11-08T08:11:20.671Z,65.85
2022-11-08T08:12:20.661Z,65.11
2022-11-08T08:13:21.143Z,65.01
2022-11-08T08:14:20.762Z,64.91
2022-11-08T08:15:20.669Z,64.81
2022-11-08T08:16:20.621Z,64.91
2022-11-08T08:17:20.676Z,64.81
2022-11-08T08:18:20.575Z,64.37
2022-11-08T08:19:20.633Z,64.61
2022-11-08T08:20:20.550Z,64.81
2022-11-08T08:21:20.543Z,64.70
2022-11-08T08:22:20.551Z,64.78
2022-11-08T08:23:20.948Z,64.61
2022-11-08T08:24:20.500Z,64.70
2022-11-08T08:25:20.540Z,64.47
2022-11-08T08:26:20.500Z,64.58
2022-11-08T08:27:20.457Z,64.24
2022-11-08T08:28:20.451Z,63.53
2022-11-08T08:29:20.712Z,63.63
2022-11-08T08:30:20.430Z,64.07
2022-11-08T08:31:20.449Z,63.83
2022-11-08T08:32:20.409Z,63.76
2022-11-08T08:33:29.071Z,63.73
2022-11-08T08:34:20.378Z,63.63
2022-11-08T08:35:20.379Z,63.23
2022-11-08T08:36:20.348Z,63.23
2022-11-08T08:37:20.355Z,63.23
2022-11-08T08:38:20.354Z,63.43
2022-11-08T08:39:20.323Z,63.12
2022-11-08T08:40:20.331Z,63.53
2022-11-08T08:41:20.301Z,63.76
2022-11-08T08:42:20.284Z,63.93
2022-11-08T08:43:20.850Z,63.96
2022-11-08T08:44:21.164Z,63.96
2022-11-08T08:45:20.240Z,64.17
2022-11-08T08:46:20.236Z,64.47
2022-11-08T08:47:20.251Z,64.27
2022-11-08T08:48:20.332Z,64.37
2022-11-08T08:49:20.216Z,64.07
2022-11-08T08:50:20.195Z,64.07
2022-11-08T08:51:20.166Z,63.76
2022-11-08T08:52:20.153Z,63.53
2022-11-08T08:53:20.609Z,64.04
2022-11-08T08:54:20.153Z,63.96
2022-11-08T08:55:20.135Z,63.96
2022-11-08T08:56:20.117Z,64.07
2022-11-08T08:57:20.101Z,63.96
2022-11-08T08:58:20.108Z,63.96
2022-11-08T09:02:20.033Z,64.07
2022-11-08T09:03:20.484Z,64.07
2022-11-08T09:04:20.030Z,63.96
2022-11-08T09:05:20.019Z,63.86
2022-11-08T09:06:19.969Z,63.96
2022-11-08T09:07:20.059Z,63.86
2022-11-08T09:08:19.973Z,63.63
2022-11-08T09:09:20.978Z,63.53
2022-11-08T09:10:19.920Z,63.32
2022-11-08T09:11:19.904Z,63.32
2022-11-08T09:12:19.899Z,63.43
2022-11-08T09:13:20.244Z,63.12
2022-11-08T09:14:19.892Z,62.92
2022-11-08T09:15:19.897Z,62.62
2022-11-08T09:16:19.869Z,62.11
2022-11-08T09:17:19.835Z,61.98
2022-11-08T09:18:19.911Z,61.88
2022-11-08T09:19:19.834Z,61.68
2022-11-08T09:20:19.812Z,61.68
2022-11-08T09:21:19.821Z,61.98
2022-11-08T09:22:19.768Z,61.88
2022-11-08T09:23:20.244Z,61.75
2022-11-08T09:24:19.771Z,61.24
2022-11-08T09:25:19.750Z,61.24
2022-11-08T09:26:19.722Z,61.37
2022-11-08T09:27:19.731Z,61.17
2022-11-08T09:28:19.692Z,61.27
2022-11-08T09:29:19.695Z,61.17
2022-11-08T09:30:19.676Z,60.84
2022-11-08T09:31:19.705Z,60.94
2022-11-08T09:32:33.415Z,61.04
2022-11-08T09:33:20.039Z,61.17
2022-11-08T09:34:21.710Z,60.86
2022-11-08T09:35:19.606Z,61.07
2022-11-08T09:36:19.608Z,60.86
2022-11-08T09:37:19.614Z,60.66
2022-11-08T09:38:19.841Z,60.66
2022-11-08T09:39:19.566Z,60.26
2022-11-08T09:40:19.573Z,60.16
2022-11-08T09:41:19.535Z,59.72
2022-11-08T09:42:19.526Z,59.72
2022-11-08T09:43:20.027Z,59.52
2022-11-08T09:44:19.495Z,59.52
2022-11-08T09:45:19.477Z,59.63
2022-11-08T09:46:19.469Z,59.52
2022-11-08T09:47:19.504Z,59.39
2022-11-08T09:48:19.473Z,59.09
2022-11-08T09:49:19.460Z,59.09
2022-11-08T09:50:19.424Z,59.09
2022-11-08T09:51:19.434Z,59.22
2022-11-08T09:52:19.406Z,59.42
2022-11-08T09:53:19.632Z,59.32
2022-11-08T09:54:19.773Z,59.29
2022-11-08T09:55:19.704Z,59.09
2022-11-08T09:56:19.351Z,59.19
2022-11-08T09:57:19.350Z,59.19
2022-11-08T09:58:20.230Z,58.99
2022-11-08T09:59:19.296Z,59.39
2022-11-08T10:00:25.842Z,59.39
2022-11-08T10:01:23.279Z,59.29
2022-11-08T10:02:19.438Z,59.09
2022-11-08T10:03:19.779Z,59.19
2022-11-08T10:04:19.252Z,59.42
2022-11-08T10:05:19.268Z,59.29
2022-11-08T10:06:19.273Z,59.63
2022-11-08T10:07:19.229Z,59.72
2022-11-08T10:08:19.190Z,59.72
2022-11-08T10:09:19.219Z,59.70
2022-11-08T10:10:21.674Z,59.49
2022-11-08T10:11:19.162Z,59.49
2022-11-08T10:12:19.164Z,59.72
2022-11-08T10:13:19.645Z,60.03
2022-11-08T10:14:19.117Z,60.23
2022-11-08T10:15:19.123Z,60.13
2022-11-08T10:16:19.434Z,60.23
2022-11-08T10:17:19.095Z,59.92
2022-11-08T10:18:19.105Z,60.00
2022-11-08T10:19:19.075Z,60.13
2022-11-08T10:20:19.094Z,60.13
2022-11-08T10:21:19.055Z,60.23
2022-11-08T10:22:19.010Z,60.33
2022-11-08T10:23:19.316Z,60.33
2022-11-08T10:24:19.012Z,60.63
2022-11-08T10:25:18.998Z,60.63
2022-11-08T10:26:24.197Z,60.43
2022-11-08T10:27:19.206Z,60.74
2022-11-08T10:28:18.978Z,60.74
2022-11-08T10:29:19.614Z,60.74
2022-11-08T10:30:18.986Z,60.53
2022-11-08T10:31:18.889Z,60.84
2022-11-08T10:32:18.910Z,60.74
2022-11-08T10:33:19.144Z,60.84
2022-11-08T10:34:18.950Z,60.84
2022-11-08T10:35:18.851Z,60.53
2022-11-08T10:36:18.964Z,60.84
2022-11-08T10:37:18.831Z,60.94
2022-11-08T10:38:18.873Z,61.24
2022-11-08T10:39:18.804Z,61.04
2022-11-08T10:40:18.923Z,61.14
2022-11-08T10:41:18.787Z,61.14
2022-11-08T10:42:18.797Z,61.04
2022-11-08T10:43:18.981Z,60.94
2022-11-08T10:44:18.742Z,61.04
2022-11-08T10:45:18.984Z,61.14
2022-11-08T10:46:18.815Z,61.04
2022-11-08T10:47:20.572Z,61.14
2022-11-08T10:48:45.052Z,61.14
2022-11-08T10:49:33.585Z,61.14
2022-11-08T10:50:22.764Z,61.14
2022-11-08T10:51:18.641Z,61.04
2022-11-08T10:52:18.631Z,60.94
2022-11-08T10:53:19.041Z,60.94
2022-11-08T10:54:22.858Z,60.94
2022-11-08T10:55:18.688Z,61.04
2022-11-08T10:56:37.678Z,60.63
2022-11-08T10:57:21.193Z,60.53
2022-11-08T10:59:30.480Z,60.74
2022-11-08T11:00:40.823Z,60.63
2022-11-08T11:01:52.058Z,60.61
2022-11-08T11:02:31.155Z,60.61
2022-11-08T11:08:19.551Z,60.61
2022-11-08T11:08:24.785Z,60.30
2022-11-08T11:10:08.046Z,60.20
2022-11-08T11:10:28.217Z,60.41
2022-11-08T11:11:49.806Z,60.43
2022-11-08T11:14:27.857Z,60.74
2022-11-08T11:14:32.785Z,60.94
2022-11-08T11:15:56.398Z,60.84
2022-11-08T11:16:34.666Z,60.74
2022-11-08T11:17:35.584Z,60.61
2022-11-08T11:18:32.736Z,60.74
2022-11-08T11:19:32.710Z,61.04
2022-11-08T11:20:32.710Z,61.14
2022-11-08T11:21:32.903Z,61.04
2022-11-08T11:22:32.741Z,61.14
2022-11-08T11:23:32.683Z,61.04
2022-11-08T11:24:32.849Z,61.04
2022-11-08T11:25:56.619Z,60.94
2022-11-08T11:26:33.556Z,60.71
2022-11-08T11:27:32.616Z,60.74
2022-11-08T11:28:32.646Z,60.97
2022-11-08T11:29:32.618Z,61.04
2022-11-08T11:30:32.584Z,61.04
2022-11-08T11:31:33.109Z,61.14
2022-11-08T11:32:33.210Z,60.84
2022-11-08T11:33:37.927Z,60.84
2022-11-08T11:35:11.617Z,61.04
2022-11-08T11:35:39.850Z,60.84
2022-11-08T11:36:35.139Z,61.04
2022-11-08T11:37:32.641Z,61.04
2022-11-08T11:38:56.265Z,61.24
2022-11-08T11:39:32.480Z,61.01
2022-11-08T11:40:32.479Z,61.01
2022-11-08T11:41:57.231Z,60.71
2022-11-08T11:42:45.736Z,60.81
2022-11-08T11:43:32.681Z,60.68
2022-11-08T11:44:32.413Z,60.27
2022-11-08T11:45:32.395Z,60.50
2022-11-08T11:46:35.201Z,60.81
2022-11-08T11:47:32.364Z,60.78
2022-11-08T11:48:32.348Z,60.81
2022-11-08T11:49:33.844Z,60.91
2022-11-08T11:50:32.871Z,60.81
2022-11-08T11:51:32.607Z,60.68
2022-11-08T11:52:32.305Z,60.78
2022-11-08T11:53:32.469Z,61.01
2022-11-08T11:54:32.262Z,60.68
2022-11-08T11:55:32.249Z,60.78
2022-11-08T11:56:32.322Z,60.68
2022-11-08T11:57:32.215Z,60.68
2022-11-08T11:58:32.235Z,60.68
2022-11-08T11:59:32.241Z,60.78
2022-11-08T12:00:32.194Z,60.68
2022-11-08T12:01:32.196Z,60.48
2022-11-08T12:02:32.237Z,60.17
2022-11-08T12:03:32.137Z,60.58
2022-11-08T12:04:32.148Z,60.48
2022-11-08T12:05:32.153Z,60.58
2022-11-08T12:06:32.167Z,60.48
2022-11-08T12:07:32.096Z,60.78
2022-11-08T12:08:32.076Z,60.35
2022-11-08T12:09:32.077Z,60.25
2022-11-08T12:10:32.114Z,59.94
2022-11-08T12:11:32.057Z,60.25
2022-11-08T12:12:32.043Z,60.25
2022-11-08T12:13:32.332Z,60.07
2022-11-08T12:14:32.059Z,60.88
2022-11-08T12:15:32.008Z,60.78
2022-11-08T12:16:31.997Z,60.68
2022-11-08T12:17:31.968Z,60.35
2022-11-08T12:18:42.796Z,59.71
2022-11-08T12:19:32.727Z,59.51
2022-11-08T12:20:32.529Z,59.71
2022-11-08T12:21:32.086Z,59.61
2022-11-08T12:22:31.923Z,59.81
2022-11-08T12:23:31.974Z,59.71
2022-11-08T12:24:31.985Z,59.38
2022-11-08T12:25:31.878Z,59.51
2022-11-08T12:26:31.857Z,59.61
2022-11-08T12:27:31.829Z,59.71
2022-11-08T12:28:31.853Z,59.51
2022-11-08T12:29:31.815Z,59.08
2022-11-08T12:30:31.791Z,59.08
2022-11-08T12:31:31.789Z,58.98
2022-11-08T12:32:31.822Z,59.08
2022-11-08T12:33:31.833Z,59.18
2022-11-08T12:34:31.802Z,59.08
2022-11-08T12:35:31.748Z,58.75
2022-11-08T12:36:31.829Z,58.87
2022-11-08T12:37:31.725Z,58.98
2022-11-08T12:38:31.695Z,59.31
2022-11-08T12:39:31.682Z,59.94
2022-11-08T12:40:31.696Z,60.45
2022-11-08T12:41:31.690Z,60.45
2022-11-08T12:42:31.675Z,60.45
2022-11-08T12:43:32.301Z,60.35
2022-11-08T12:44:32.656Z,60.35
2022-11-08T12:45:32.232Z,60.42
2022-11-08T12:46:31.605Z,60.22
2022-11-08T12:47:31.745Z,60.12
2022-11-08T12:48:31.736Z,60.14
2022-11-08T12:49:31.564Z,60.35
2022-11-08T12:50:31.570Z,60.45
2022-11-08T12:51:31.621Z,60.35
2022-11-08T12:52:31.547Z,60.55
2022-11-08T12:53:31.517Z,60.65
2022-11-08T12:54:32.210Z,60.75
2022-11-08T12:55:31.472Z,61.05
2022-11-08T12:56:31.481Z,60.85
2022-11-08T12:57:31.447Z,60.96
2022-11-08T12:58:34.142Z,60.65
2022-11-08T12:59:31.434Z,60.75
2022-11-08T13:00:52.635Z,61.05
2022-11-08T13:01:31.473Z,61.05